Hendricks, West Virginia
Current Conditions -  °F | °C
As of 8:51 PM on Friday 19 Dec 2014 (Local Time) from KEKN Reporting Station
Overcast Overcast  
Wind Chill: -3°   Ceiling: 1300
Heat Index: -3°   Visibility: 10mi
Dew Point: -6°   Wind: 3mph
Humidity: 84%   Direction: 320°NW
Pressure: 30.23"   Gusts: NA
Location:  39.08°N, 79.63°W
Report Text: KEKN 200151Z AUTO 32003KT 10SM OVC013 M03/M06 A3023 RMK AO2 SLP267 T10331056 TSNO $
Loading
Personal Weather Stations






























Interactive Weather Map New forecast layout! Learn more

10-Day Weather Forecast

Advertisements
Track Severe Weather on mobile